Wetterdaten: Juni 2010
Datum Temp Feuchte Luftdruck Regen Wind Richtung Sonnenschein UV Solar Windben
01.06.2010 14,7 C 75 % 1013,9 hPa 0,0 l/m 5,9 km/h N-NW 6,50 h 3,3 UV-I 375 W/m 11,6 km/h
02.06.2010 14,2 C 79 % 1017,0 hPa 0,0 l/m 7,4 km/h N-NW 3,00 h 1,8 UV-I 217 W/m 14,9 km/h
03.06.2010 16,3 C 68 % 1019,6 hPa 0,0 l/m 3,5 km/h N-NO 13,00 h 3,5 UV-I 486 W/m 7,6 km/h
04.06.2010 16,0 C 67 % 1020,2 hPa 0,0 l/m 1,5 km/h N-NW 13,00 h 3,6 UV-I 486 W/m 3,6 km/h
05.06.2010 19,3 C 64 % 1018,1 hPa 0,0 l/m 1,2 km/h N-NO 12,83 h 3,4 UV-I 476 W/m 4,4 km/h
06.06.2010 20,0 C 71 % 1009,6 hPa 0,0 l/m 7,7 km/h S 7,83 h 3,0 UV-I 358 W/m 15,7 km/h
07.06.2010 15,3 C 79 % 1009,8 hPa 0,0 l/m 4,5 km/h S-SW 2,17 h 1,8 UV-I 179 W/m 13,3 km/h
08.06.2010 18,0 C 76 % 1006,3 hPa 0,0 l/m 12,0 km/h S 7,25 h 2,9 UV-I 350 W/m 21,3 km/h
09.06.2010 20,6 C 74 % 1005,8 hPa 0,0 l/m 3,9 km/h S 5,42 h 2,8 UV-I 302 W/m 10,4 km/h
10.06.2010 20,7 C 80 % 1005,1 hPa 19,4 l/m 1,3 km/h S-SO 4,33 h 2,7 UV-I 291 W/m 5,2 km/h
11.06.2010 19,4 C 74 % 1006,0 hPa 1,6 l/m 10,2 km/h S 7,83 h 2,8 UV-I 374 W/m 24,9 km/h
12.06.2010 12,6 C 91 % 1011,2 hPa 1,6 l/m 0,9 km/h NW 0,42 h 0,8 UV-I 76 W/m 4,0 km/h
13.06.2010 11,8 C 80 % 1015,3 hPa 0,0 l/m 1,1 km/h N-NW 5,83 h 2,4 UV-I 318 W/m 4,0 km/h
14.06.2010 14,8 C 72 % 1016,1 hPa 0,0 l/m 1,3 km/h N-NO 9,92 h 3,1 UV-I 427 W/m 6,8 km/h
15.06.2010 13,2 C 69 % 1022,1 hPa 0,0 l/m 7,4 km/h N-NO 9,08 h 2,8 UV-I 384 W/m 15,3 km/h
16.06.2010 15,5 C 64 % 1021,3 hPa 0,0 l/m 5,4 km/h N-NO 12,67 h 3,7 UV-I 483 W/m 12,9 km/h
17.06.2010 17,1 C 60 % 1016,9 hPa 0,0 l/m 4,8 km/h N-NO 13,08 h 3,6 UV-I 479 W/m 11,6 km/h
18.06.2010 12,9 C 78 % 1011,3 hPa 0,0 l/m 10,5 km/h N-NW 1,42 h 1,6 UV-I 162 W/m 22,5 km/h
19.06.2010 9,3 C 86 % 1007,0 hPa 4,2 l/m 4,2 km/h N-NW 3,33 h 2,0 UV-I 236 W/m 14,5 km/h
20.06.2010 11,4 C 81 % 1013,9 hPa 1,6 l/m 4,3 km/h NW 1,50 h 1,8 UV-I 214 W/m 10,5 km/h
21.06.2010 10,6 C 83 % 1020,3 hPa 0,0 l/m 1,9 km/h NW 2,17 h 2,1 UV-I 225 W/m 4,8 km/h
22.06.2010 13,8 C 81 % 1023,1 hPa 0,0 l/m 0,6 km/h N-NO 5,00 h 2,6 UV-I 314 W/m 2,4 km/h
23.06.2010 16,8 C 71 % 1021,3 hPa 0,0 l/m 0,8 km/h S 11,58 h 3,4 UV-I 437 W/m 2,0 km/h
24.06.2010 19,0 C 71 % 1017,1 hPa 0,0 l/m 1,9 km/h NW 13,08 h 3,6 UV-I 475 W/m 3,6 km/h
25.06.2010 18,2 C 68 % 1015,6 hPa 0,0 l/m 4,0 km/h N 8,75 h 2,6 UV-I 362 W/m 9,3 km/h
26.06.2010 18,3 C 63 % 1017,8 hPa 0,0 l/m 1,7 km/h N-NO 12,17 h 3,9 UV-I 482 W/m 6,0 km/h
27.06.2010 20,5 C 62 % 1019,1 hPa 0,0 l/m 3,2 km/h SO 13,08 h 3,7 UV-I 479 W/m 8,1 km/h
28.06.2010 23,2 C 61 % 1017,6 hPa 0,0 l/m 1,2 km/h SO 12,00 h 3,2 UV-I 444 W/m 3,6 km/h
29.06.2010 20,8 C 74 % 1017,6 hPa 0,0 l/m 2,7 km/h S 9,75 h 3,2 UV-I 400 W/m 6,4 km/h
30.06.2010 21,0 C 70 % 1018,3 hPa 0,0 l/m 2,6 km/h NW 11,33 h 3,5 UV-I 428 W/m 8,8 km/h
Min-Datum 22.06.10 05.06.10 11.06.10 5 Tage 02.06.10 - - - - 03.06.10
Min-Zeit 01:50 15:20 06:55 - 03:05 - - - - 03:40
Minimum 4,8 C 36 % 1003,6 hPa - 0,0 km/h - - - - 0,0 km/h
Max-Datum 28.06.10 01.06.10 16.06.10 10.06.10 08.06.10 - 17.06.10 26.06.10 13.06.10 11.06.10
Max-Zeit 15:45 06:50 00:50 01:50 15:05 - 20:10 13:30 14:55 12:45
Maximum 30,4 C 99 % 1023,8 hPa 19,4 l/m 24,0 km/h
S
- 13,00 h 7,5 UV-I 1204 W/m 45,1 km/h
S
Durchschnitt 16,5 C 73 % 1015,1 hPa #28,4 l/m 4,0 km/h N-NW #239:20 h 2,8 UV-I 357 W/m 9,7 km/h

Durchschnitt Minimum Temp.9,6 C
Durchschnitt Maximum Temp.22,1 C